createdAt,value
2018-07-16T00:02:23.069Z,7.37
2018-07-16T00:04:50.079Z,6.73
2018-07-16T00:07:17.113Z,7.40
2018-07-16T00:09:44.178Z,6.70
2018-07-16T00:12:11.213Z,6.90
2018-07-16T00:14:38.908Z,7.33
2018-07-16T00:17:05.884Z,6.73
2018-07-16T00:19:32.904Z,7.53
2018-07-16T00:22:00.474Z,8.57
2018-07-16T00:24:27.523Z,7.27
2018-07-16T00:26:54.864Z,6.90
2018-07-16T00:29:22.057Z,7.63
2018-07-16T00:31:49.348Z,8.00
2018-07-16T00:34:16.641Z,7.43
2018-07-16T00:36:44.324Z,7.67
2018-07-16T00:39:11.312Z,7.30
2018-07-16T00:41:38.447Z,7.50
2018-07-16T00:44:05.677Z,7.70
2018-07-16T00:46:32.986Z,7.30
2018-07-16T00:49:00.069Z,8.00
2018-07-16T00:51:27.253Z,8.10
2018-07-16T00:53:54.277Z,8.63
2018-07-16T00:56:21.300Z,6.87
2018-07-16T00:58:48.217Z,7.10
2018-07-16T01:01:15.246Z,8.03
2018-07-16T01:03:42.398Z,7.10
2018-07-16T01:06:09.373Z,7.03
2018-07-16T01:08:36.369Z,7.27
2018-07-16T01:11:03.482Z,7.67
2018-07-16T01:13:30.686Z,9.30
2018-07-16T01:15:57.701Z,7.87
2018-07-16T01:18:24.697Z,8.40
2018-07-16T01:20:51.680Z,8.93
2018-07-16T01:23:19.225Z,8.17
2018-07-16T01:25:46.235Z,8.40
2018-07-16T01:28:13.213Z,8.10
2018-07-16T01:30:40.197Z,7.93
2018-07-16T01:33:07.181Z,8.17
2018-07-16T01:35:34.341Z,12.50
2018-07-16T01:38:01.339Z,7.03
2018-07-16T01:40:28.321Z,7.70
2018-07-16T01:42:55.302Z,10.25
2018-07-16T01:45:23.109Z,8.03
2018-07-16T01:47:50.069Z,8.83
2018-07-16T01:50:17.200Z,7.70
2018-07-16T01:52:44.182Z,8.70
2018-07-16T01:55:11.229Z,7.30
2018-07-16T01:57:38.185Z,6.97
2018-07-16T02:00:05.221Z,6.60
2018-07-16T02:02:32.209Z,9.97
2018-07-16T02:04:59.317Z,7.67
2018-07-16T02:07:26.325Z,8.30
2018-07-16T02:09:53.388Z,8.43
2018-07-16T02:12:20.397Z,7.70
2018-07-16T02:14:47.426Z,8.60
2018-07-16T02:17:14.398Z,9.10
2018-07-16T02:19:41.396Z,9.40
2018-07-16T02:22:08.352Z,7.87
2018-07-16T02:24:35.320Z,8.50
2018-07-16T02:27:02.305Z,10.23
2018-07-16T02:29:29.593Z,8.45
2018-07-16T02:31:56.602Z,8.73
2018-07-16T02:34:23.897Z,8.83
2018-07-16T02:36:50.889Z,9.43
2018-07-16T02:39:17.860Z,9.73
2018-07-16T02:41:44.837Z,10.50
2018-07-16T02:44:12.456Z,8.97
2018-07-16T02:46:39.457Z,8.73
2018-07-16T02:49:06.490Z,8.60
2018-07-16T02:51:33.480Z,9.17
2018-07-16T02:54:00.525Z,8.57
2018-07-16T02:56:27.655Z,8.93
2018-07-16T02:58:54.625Z,10.75
2018-07-16T03:01:21.621Z,10.20
2018-07-16T03:03:48.658Z,8.33
2018-07-16T03:06:16.633Z,8.87
2018-07-16T03:08:43.613Z,7.83
2018-07-16T03:11:10.646Z,9.13
2018-07-16T03:13:37.665Z,8.35
2018-07-16T03:16:04.685Z,10.32
2018-07-16T03:18:31.672Z,10.10
2018-07-16T03:20:58.702Z,9.47
2018-07-16T03:23:25.761Z,8.93
2018-07-16T03:25:52.789Z,9.43
2018-07-16T03:28:19.757Z,9.30
2018-07-16T03:30:47.022Z,9.58
2018-07-16T03:33:14.000Z,9.65
2018-07-16T03:35:41.289Z,10.68
2018-07-16T03:38:08.281Z,10.28
2018-07-16T03:40:35.282Z,9.85
2018-07-16T03:43:02.292Z,13.50
2018-07-16T03:45:29.295Z,10.53
2018-07-16T03:47:56.319Z,14.30
2018-07-16T03:50:23.582Z,11.80
2018-07-16T03:52:50.608Z,12.17
2018-07-16T03:55:17.689Z,11.40
2018-07-16T03:57:44.701Z,12.28
2018-07-16T04:00:11.901Z,11.47
2018-07-16T04:02:38.953Z,10.75
2018-07-16T04:05:05.958Z,12.17
2018-07-16T04:07:32.984Z,12.10
2018-07-16T04:10:00.027Z,11.73
2018-07-16T04:12:27.071Z,13.20
2018-07-16T04:14:54.266Z,12.33
2018-07-16T04:17:21.290Z,10.80
2018-07-16T04:19:48.493Z,12.30
2018-07-16T04:22:16.106Z,12.90
2018-07-16T04:24:43.088Z,12.70
2018-07-16T04:27:10.187Z,12.80
2018-07-16T04:29:37.188Z,12.97
2018-07-16T04:32:04.193Z,12.15
2018-07-16T04:34:31.195Z,12.03
2018-07-16T04:36:58.173Z,11.80
2018-07-16T04:39:25.181Z,11.07
2018-07-16T04:41:52.266Z,12.20
2018-07-16T04:44:19.293Z,12.58
2018-07-16T04:46:46.317Z,11.40
2018-07-16T04:49:13.313Z,15.73
2018-07-16T04:51:40.321Z,12.37
2018-07-16T04:54:07.365Z,10.70
2018-07-16T04:56:34.373Z,13.60
2018-07-16T04:59:01.466Z,12.27
2018-07-16T05:01:28.475Z,11.60
2018-07-16T05:03:55.473Z,11.50
2018-07-16T05:06:22.631Z,12.77
2018-07-16T05:08:49.581Z,11.33
2018-07-16T05:11:17.297Z,13.20
2018-07-16T05:13:44.264Z,10.63
2018-07-16T05:16:11.225Z,12.00
2018-07-16T05:18:38.237Z,9.50
2018-07-16T05:21:05.261Z,10.07
2018-07-16T05:23:32.257Z,10.13
2018-07-16T05:25:59.297Z,9.90
2018-07-16T05:28:26.332Z,9.83
2018-07-16T05:30:53.289Z,9.33
2018-07-16T05:33:20.329Z,9.27
2018-07-16T05:35:47.592Z,10.17
2018-07-16T05:38:14.627Z,10.90
2018-07-16T05:40:41.658Z,9.93
2018-07-16T05:43:08.657Z,10.13
2018-07-16T05:45:35.761Z,8.07
2018-07-16T05:48:03.117Z,10.90
2018-07-16T05:50:30.076Z,8.77
2018-07-16T05:52:57.105Z,10.20
2018-07-16T05:55:24.147Z,10.20
2018-07-16T05:57:51.161Z,10.60
2018-07-16T06:00:18.140Z,9.70
2018-07-16T06:02:45.132Z,10.37
2018-07-16T06:05:12.321Z,10.27
2018-07-16T06:07:39.306Z,9.27
2018-07-16T06:10:06.335Z,8.37
2018-07-16T06:12:33.337Z,8.20
2018-07-16T06:15:00.353Z,8.43
2018-07-16T06:17:27.344Z,8.87
2018-07-16T06:19:54.390Z,9.10
2018-07-16T06:22:21.394Z,8.27
2018-07-16T06:24:48.361Z,10.40
2018-07-16T06:27:15.417Z,8.63
2018-07-16T06:29:43.257Z,8.00
2018-07-16T06:32:10.474Z,7.60
2018-07-16T06:34:37.874Z,7.20
2018-07-16T06:37:05.106Z,12.23
2018-07-16T06:39:32.152Z,9.87
2018-07-16T06:41:59.126Z,7.67
2018-07-16T06:44:26.157Z,7.97
2018-07-16T06:46:53.497Z,7.47
2018-07-16T06:49:20.522Z,8.30
2018-07-16T06:51:47.540Z,7.43
2018-07-16T06:54:14.744Z,8.97
2018-07-16T06:56:41.757Z,9.20
2018-07-16T06:59:08.772Z,6.53
2018-07-16T07:01:35.830Z,6.50
2018-07-16T07:04:03.360Z,6.00
2018-07-16T07:06:30.677Z,6.27
2018-07-16T07:08:57.652Z,6.90
2018-07-16T07:11:24.632Z,5.90
2018-07-16T07:13:51.648Z,7.70
2018-07-16T07:16:19.017Z,5.00
2018-07-16T07:18:46.029Z,8.50
2018-07-16T07:21:13.170Z,6.30
2018-07-16T07:23:40.157Z,4.87
2018-07-16T07:26:07.144Z,4.70
2018-07-16T07:28:34.166Z,4.93
2018-07-16T07:31:01.170Z,4.53
2018-07-16T07:33:28.161Z,5.33
2018-07-16T07:35:55.153Z,4.47
2018-07-16T07:38:22.253Z,5.80
2018-07-16T07:40:49.685Z,4.67
2018-07-16T07:43:16.813Z,4.37
2018-07-16T07:45:43.761Z,5.00
2018-07-16T07:48:10.744Z,3.93
2018-07-16T07:50:37.716Z,3.57
2018-07-16T07:53:04.905Z,3.73
2018-07-16T07:55:31.953Z,3.93
2018-07-16T07:57:59.972Z,4.80
2018-07-16T08:00:26.974Z,4.20
2018-07-16T08:02:54.001Z,6.00
2018-07-16T08:05:21.516Z,3.13
2018-07-16T08:07:48.887Z,2.90
2018-07-16T08:10:15.999Z,2.93
2018-07-16T08:12:42.984Z,3.50
2018-07-16T08:15:10.001Z,3.30
2018-07-16T08:17:37.168Z,4.20
2018-07-16T08:20:04.217Z,3.60
2018-07-16T08:22:31.221Z,3.53
2018-07-16T08:24:58.228Z,3.03
2018-07-16T08:27:25.278Z,4.27
2018-07-16T08:29:52.294Z,2.60
2018-07-16T08:32:19.320Z,4.67
2018-07-16T08:34:46.310Z,2.43
2018-07-16T08:37:13.341Z,2.50
2018-07-16T08:39:40.365Z,2.90
2018-07-16T08:42:07.369Z,2.50
2018-07-16T08:44:34.554Z,2.40
2018-07-16T08:47:01.534Z,2.23
2018-07-16T08:49:28.528Z,3.10
2018-07-16T08:51:55.571Z,2.83
2018-07-16T08:54:22.625Z,3.67
2018-07-16T08:56:49.689Z,4.67
2018-07-16T08:59:16.731Z,3.40
2018-07-16T09:01:43.761Z,4.10
2018-07-16T09:04:10.788Z,4.17
2018-07-16T09:06:37.729Z,3.83
2018-07-16T09:09:04.861Z,3.90
2018-07-16T09:11:31.987Z,3.47
2018-07-16T09:13:59.004Z,3.50
2018-07-16T09:16:25.969Z,4.40
2018-07-16T09:18:52.935Z,3.47
2018-07-16T09:21:19.949Z,2.93
2018-07-16T09:23:47.013Z,3.93
2018-07-16T09:26:14.850Z,3.70
2018-07-16T09:28:41.833Z,4.33
2018-07-16T09:31:08.820Z,4.10
2018-07-16T09:33:36.019Z,4.70
2018-07-16T09:36:03.166Z,5.23
2018-07-16T09:38:30.232Z,5.57
2018-07-16T09:40:57.157Z,3.97
2018-07-16T09:43:24.845Z,3.47
2018-07-16T09:45:51.849Z,4.80
2018-07-16T09:48:18.845Z,5.37
2018-07-16T09:50:45.945Z,5.47
2018-07-16T09:53:12.945Z,4.30
2018-07-16T09:55:39.969Z,4.20
2018-07-16T09:58:06.949Z,4.47
2018-07-16T10:00:39.276Z,4.40
2018-07-16T10:03:06.289Z,4.00
2018-07-16T10:05:33.473Z,5.53
2018-07-16T10:08:00.432Z,4.70
2018-07-16T10:10:27.424Z,4.77
2018-07-16T10:12:54.441Z,6.17
2018-07-16T10:15:21.444Z,4.10
2018-07-16T10:17:48.468Z,4.23
2018-07-16T10:20:15.492Z,3.83
2018-07-16T10:22:42.685Z,2.90
2018-07-16T10:25:09.901Z,7.13
2018-07-16T10:27:36.925Z,4.37
2018-07-16T10:30:04.090Z,4.20
2018-07-16T10:32:31.085Z,3.43
2018-07-16T10:34:58.077Z,4.70
2018-07-16T10:37:25.812Z,4.13
2018-07-16T10:39:52.805Z,3.70
2018-07-16T10:42:19.809Z,3.23
2018-07-16T10:44:46.885Z,5.73
2018-07-16T10:47:13.857Z,3.30
2018-07-16T10:49:41.498Z,5.13
2018-07-16T10:52:08.526Z,6.53
2018-07-16T10:54:35.541Z,2.93
2018-07-16T10:57:02.557Z,4.13
2018-07-16T10:59:29.540Z,3.40
2018-07-16T11:01:56.686Z,2.77
2018-07-16T11:04:23.770Z,3.00
2018-07-16T11:06:50.837Z,3.13
2018-07-16T11:09:17.837Z,3.10
2018-07-16T11:11:44.789Z,3.13
2018-07-16T11:14:11.788Z,2.70
2018-07-16T11:16:38.829Z,3.33
2018-07-16T11:19:05.820Z,2.67
2018-07-16T11:21:32.841Z,2.83
2018-07-16T11:23:59.813Z,2.97
2018-07-16T11:26:26.789Z,4.23
2018-07-16T11:28:53.816Z,3.73
2018-07-16T11:31:20.833Z,5.77
2018-07-16T11:33:47.821Z,3.90
2018-07-16T11:36:14.829Z,3.50
2018-07-16T11:38:41.816Z,3.30
2018-07-16T11:41:08.797Z,4.60
2018-07-16T11:43:35.761Z,3.13
2018-07-16T11:46:02.798Z,3.53
2018-07-16T11:48:29.808Z,3.10
2018-07-16T11:50:56.837Z,3.70
2018-07-16T11:53:23.877Z,2.43
2018-07-16T11:55:51.141Z,2.37
2018-07-16T11:58:18.176Z,2.60
2018-07-16T12:00:45.194Z,5.93
2018-07-16T12:03:12.162Z,4.20
2018-07-16T12:05:39.128Z,3.30
2018-07-16T12:08:06.124Z,3.13
2018-07-16T12:10:33.320Z,2.87
2018-07-16T12:13:00.294Z,2.80
2018-07-16T12:15:27.348Z,2.70
2018-07-16T12:17:55.060Z,2.93
2018-07-16T12:20:22.072Z,3.70
2018-07-16T12:22:49.057Z,2.63
2018-07-16T12:25:16.124Z,2.70
2018-07-16T12:27:43.141Z,3.20
2018-07-16T12:30:10.281Z,2.47
2018-07-16T12:32:37.298Z,3.37
2018-07-16T12:35:04.528Z,3.13
2018-07-16T12:37:31.678Z,3.40
2018-07-16T12:39:58.649Z,3.70
2018-07-16T12:42:25.760Z,2.83
2018-07-16T12:44:52.742Z,3.80
2018-07-16T12:47:19.820Z,3.47
2018-07-16T12:49:46.853Z,4.60
2018-07-16T12:52:13.877Z,3.80
2018-07-16T12:54:40.973Z,3.30
2018-07-16T12:57:07.969Z,3.30
2018-07-16T12:59:34.929Z,3.57
2018-07-16T13:02:01.904Z,3.77
2018-07-16T13:04:28.865Z,5.67
2018-07-16T13:06:55.881Z,3.17
2018-07-16T13:09:22.873Z,2.80
2018-07-16T13:11:49.909Z,3.10
2018-07-16T13:14:16.934Z,4.83
2018-07-16T13:16:43.946Z,3.83
2018-07-16T13:19:10.922Z,2.90
2018-07-16T13:21:37.941Z,4.13
2018-07-16T13:24:04.970Z,3.87
2018-07-16T13:26:31.961Z,2.93
2018-07-16T13:28:59.027Z,3.50
2018-07-16T13:31:26.009Z,4.20
2018-07-16T13:33:52.985Z,4.03
2018-07-16T13:36:20.066Z,3.57
2018-07-16T13:38:47.045Z,3.10
2018-07-16T13:41:14.019Z,3.27
2018-07-16T13:43:41.881Z,3.10
2018-07-16T13:46:08.957Z,3.43
2018-07-16T13:48:35.996Z,3.53
2018-07-16T13:51:03.001Z,3.83
2018-07-16T13:53:30.018Z,4.53
2018-07-16T13:55:57.705Z,4.43
2018-07-16T13:58:24.692Z,3.90
2018-07-16T14:00:51.681Z,3.40
2018-07-16T14:03:18.725Z,3.40
2018-07-16T14:05:45.789Z,3.60
2018-07-16T14:08:12.869Z,3.30
2018-07-16T14:10:39.861Z,3.23
2018-07-16T14:13:07.013Z,4.53
2018-07-16T14:15:34.178Z,3.40
2018-07-16T14:18:02.034Z,3.47
2018-07-16T14:20:29.085Z,3.40
2018-07-16T14:22:56.089Z,3.77
2018-07-16T14:25:24.377Z,3.70
2018-07-16T14:27:51.399Z,3.80
2018-07-16T14:30:18.359Z,3.70
2018-07-16T14:32:45.381Z,3.70
2018-07-16T14:35:12.451Z,3.80
2018-07-16T14:37:39.505Z,3.50
2018-07-16T14:40:06.641Z,3.60
2018-07-16T14:42:33.685Z,4.13
2018-07-16T14:45:00.804Z,3.63
2018-07-16T14:47:28.093Z,10.50
2018-07-16T14:49:55.449Z,3.17
2018-07-16T14:52:22.473Z,3.43
2018-07-16T14:54:49.556Z,4.27
2018-07-16T14:57:16.808Z,4.90
2018-07-16T14:59:43.777Z,3.60
2018-07-16T15:02:10.817Z,3.07
2018-07-16T15:04:37.778Z,4.07
2018-07-16T15:07:04.797Z,3.63
2018-07-16T15:09:31.813Z,3.60
2018-07-16T15:11:59.041Z,3.47
2018-07-16T15:14:26.288Z,3.57
2018-07-16T15:16:54.001Z,3.90
2018-07-16T15:19:20.988Z,4.77
2018-07-16T15:21:48.101Z,3.53
2018-07-16T15:24:15.109Z,3.70
2018-07-16T15:26:42.096Z,3.07
2018-07-16T15:29:09.088Z,3.30
2018-07-16T15:31:36.049Z,3.27
2018-07-16T15:34:03.124Z,8.30
2018-07-16T15:36:30.085Z,3.73
2018-07-16T15:38:57.068Z,5.90
2018-07-16T15:41:24.109Z,5.50
2018-07-16T15:43:51.037Z,3.37
2018-07-16T15:46:18.249Z,3.87
2018-07-16T15:48:45.235Z,4.53
2018-07-16T15:51:12.337Z,3.13
2018-07-16T15:53:39.402Z,4.57
2018-07-16T15:56:06.489Z,3.13
2018-07-16T15:58:33.525Z,3.43
2018-07-16T16:01:00.585Z,3.30
2018-07-16T16:03:27.619Z,3.20
2018-07-16T16:05:54.585Z,3.10
2018-07-16T16:08:21.579Z,2.73
2018-07-16T16:10:48.550Z,3.73
2018-07-16T16:13:15.539Z,3.00
2018-07-16T16:15:42.525Z,3.57
2018-07-16T16:18:09.612Z,3.37
2018-07-16T16:20:36.585Z,3.30
2018-07-16T16:23:03.636Z,3.40
2018-07-16T16:25:30.618Z,3.40
2018-07-16T16:27:57.602Z,2.63
2018-07-16T16:30:24.654Z,3.30
2018-07-16T16:32:51.723Z,3.27
2018-07-16T16:35:19.225Z,3.90
2018-07-16T16:37:46.229Z,3.33
2018-07-16T16:40:13.868Z,3.50
2018-07-16T16:42:40.854Z,4.50
2018-07-16T16:45:09.127Z,5.23
2018-07-16T16:47:36.150Z,5.00
2018-07-16T16:50:03.449Z,3.30
2018-07-16T16:52:30.670Z,3.23
2018-07-16T16:54:57.740Z,3.07
2018-07-16T16:57:24.738Z,3.90
2018-07-16T16:59:51.758Z,4.67
2018-07-16T17:02:18.757Z,3.40
2018-07-16T17:04:46.469Z,3.30
2018-07-16T17:07:13.456Z,3.20
2018-07-16T17:09:40.592Z,3.80
2018-07-16T17:12:08.426Z,3.13
2018-07-16T17:14:35.477Z,3.10
2018-07-16T17:17:02.757Z,3.30
2018-07-16T17:19:29.758Z,3.07
2018-07-16T17:21:56.731Z,3.20
2018-07-16T17:24:23.787Z,3.50
2018-07-16T17:26:50.797Z,3.13
2018-07-16T17:29:17.813Z,3.43
2018-07-16T17:31:44.789Z,4.50
2018-07-16T17:34:11.784Z,3.00
2018-07-16T17:36:38.773Z,4.10
2018-07-16T17:39:07.309Z,3.17
2018-07-16T17:41:34.277Z,3.30
2018-07-16T17:44:01.565Z,2.90
2018-07-16T17:46:28.549Z,3.30
2018-07-16T17:48:55.598Z,4.03
2018-07-16T17:51:22.586Z,3.30
2018-07-16T17:53:49.598Z,2.70
2018-07-16T17:56:16.821Z,3.63
2018-07-16T17:58:43.781Z,3.73
2018-07-16T18:01:10.848Z,3.40
2018-07-16T18:03:37.800Z,3.10
2018-07-16T18:06:04.818Z,3.00
2018-07-16T18:08:31.809Z,5.73
2018-07-16T18:10:58.777Z,6.03
2018-07-16T18:13:26.117Z,3.10
2018-07-16T18:15:53.112Z,4.20
2018-07-16T18:18:23.005Z,3.20
2018-07-16T18:20:50.013Z,3.73
2018-07-16T18:23:17.022Z,4.17
2018-07-16T18:25:44.045Z,3.27
2018-07-16T18:28:11.045Z,3.13
2018-07-16T18:30:38.065Z,4.57
2018-07-16T18:33:05.106Z,3.57
2018-07-16T18:35:32.198Z,3.90
2018-07-16T18:37:59.161Z,4.00
2018-07-16T18:40:26.188Z,2.93
2018-07-16T18:42:53.179Z,3.20
2018-07-16T18:45:20.513Z,3.77
2018-07-16T18:47:47.615Z,2.90
2018-07-16T18:50:14.642Z,3.60
2018-07-16T18:52:41.677Z,2.83
2018-07-16T18:55:08.695Z,3.13
2018-07-16T18:57:35.676Z,3.33
2018-07-16T19:00:03.085Z,4.10
2018-07-16T19:02:30.071Z,2.70
2018-07-16T19:04:57.074Z,3.50
2018-07-16T19:07:24.065Z,3.67
2018-07-16T19:09:51.671Z,3.30
2018-07-16T19:12:18.740Z,4.40
2018-07-16T19:14:46.181Z,4.17
2018-07-16T19:17:13.261Z,4.23
2018-07-16T19:19:40.350Z,3.93
2018-07-16T19:22:07.397Z,3.40
2018-07-16T19:24:34.856Z,4.90
2018-07-16T19:27:02.153Z,6.17
2018-07-16T19:29:29.173Z,4.70
2018-07-16T19:31:56.170Z,3.80
2018-07-16T19:34:23.141Z,4.63
2018-07-16T19:36:50.160Z,4.10
2018-07-16T19:39:17.274Z,4.10
2018-07-16T19:41:44.213Z,8.80
2018-07-16T19:44:11.218Z,4.77
2018-07-16T19:46:38.229Z,4.40
2018-07-16T19:49:05.252Z,5.20
2018-07-16T19:51:32.229Z,4.23
2018-07-16T19:53:59.242Z,4.20
2018-07-16T19:56:26.342Z,4.30
2018-07-16T19:58:53.336Z,4.57
2018-07-16T20:01:20.413Z,4.07
2018-07-16T20:03:47.475Z,4.30
2018-07-16T20:06:14.485Z,3.63
2018-07-16T20:08:41.453Z,5.47
2018-07-16T20:11:08.585Z,5.07
2018-07-16T20:13:35.561Z,4.77
2018-07-16T20:16:02.554Z,4.50
2018-07-16T20:18:29.538Z,5.20
2018-07-16T20:20:57.747Z,4.53
2018-07-16T20:23:24.753Z,5.10
2018-07-16T20:25:53.333Z,5.33
2018-07-16T20:28:20.340Z,6.20
2018-07-16T20:30:47.541Z,4.60
2018-07-16T20:35:35.928Z,4.60
2018-07-16T20:38:02.897Z,5.37
2018-07-16T20:40:29.993Z,5.53
2018-07-16T20:42:57.017Z,8.10
2018-07-16T20:45:24.041Z,5.67
2018-07-16T20:47:51.121Z,7.80
2018-07-16T20:50:18.141Z,8.60
2018-07-16T20:52:45.199Z,5.83
2018-07-16T20:55:12.217Z,5.43
2018-07-16T20:57:39.429Z,4.50
2018-07-16T21:00:06.439Z,6.03
2018-07-16T21:02:33.637Z,5.07
2018-07-16T21:05:00.650Z,6.10
2018-07-16T21:07:27.662Z,5.70
2018-07-16T21:09:54.677Z,5.43
2018-07-16T21:12:21.725Z,5.67
2018-07-16T21:14:48.761Z,6.30
2018-07-16T21:17:15.956Z,6.60
2018-07-16T21:19:42.904Z,5.83
2018-07-16T21:22:09.901Z,5.80
2018-07-16T21:24:36.857Z,5.43
2018-07-16T21:27:03.877Z,7.27
2018-07-16T21:29:30.852Z,6.60
2018-07-16T21:31:57.828Z,6.40
2018-07-16T21:34:24.809Z,6.53
2018-07-16T21:36:51.809Z,6.47
2018-07-16T21:39:18.896Z,6.20
2018-07-16T21:41:45.936Z,7.83
2018-07-16T21:44:12.905Z,7.37
2018-07-16T21:46:39.941Z,6.10
2018-07-16T21:49:06.911Z,5.70
2018-07-16T21:51:34.009Z,7.10
2018-07-16T21:54:00.990Z,10.33
2018-07-16T21:56:28.164Z,6.13
2018-07-16T21:58:55.118Z,6.90
2018-07-16T22:01:22.123Z,10.80
2018-07-16T22:03:49.165Z,9.70
2018-07-16T22:06:16.133Z,7.83
2018-07-16T22:08:43.130Z,7.20
2018-07-16T22:11:10.118Z,6.80
2018-07-16T22:13:37.150Z,6.73
2018-07-16T22:16:04.184Z,7.40
2018-07-16T22:18:33.554Z,8.33
2018-07-16T22:21:00.550Z,8.90
2018-07-16T22:23:27.560Z,8.00
2018-07-16T22:25:54.611Z,9.17
2018-07-16T22:28:21.597Z,8.63
2018-07-16T22:30:48.723Z,7.10
2018-07-16T22:33:15.755Z,8.70
2018-07-16T22:35:42.741Z,10.73
2018-07-16T22:38:09.712Z,8.17
2018-07-16T22:40:36.717Z,10.53
2018-07-16T22:43:03.728Z,8.73
2018-07-16T22:45:30.761Z,12.20
2018-07-16T22:47:57.773Z,9.73
2018-07-16T22:50:24.750Z,9.50
2018-07-16T22:52:51.780Z,8.37
2018-07-16T22:55:18.777Z,9.27
2018-07-16T22:57:45.929Z,9.90
2018-07-16T23:00:12.938Z,9.50
2018-07-16T23:02:40.049Z,8.70
2018-07-16T23:05:07.045Z,8.53
2018-07-16T23:07:34.037Z,9.63
2018-07-16T23:10:01.085Z,8.53
2018-07-16T23:12:28.159Z,10.00
2018-07-16T23:14:55.124Z,9.27
2018-07-16T23:17:22.125Z,8.83
2018-07-16T23:19:49.245Z,9.20
2018-07-16T23:22:16.241Z,9.50
2018-07-16T23:24:43.209Z,9.63
2018-07-16T23:27:10.193Z,8.87
2018-07-16T23:29:37.241Z,9.20
2018-07-16T23:32:04.264Z,8.97
2018-07-16T23:34:31.277Z,10.70
2018-07-16T23:36:58.386Z,8.87
2018-07-16T23:39:25.393Z,9.80
2018-07-16T23:41:52.380Z,9.63
2018-07-16T23:44:19.365Z,8.67
2018-07-16T23:46:46.414Z,9.37
2018-07-16T23:49:13.429Z,9.87
2018-07-16T23:51:40.422Z,9.97
2018-07-16T23:54:07.437Z,8.63
2018-07-16T23:56:34.418Z,10.10
2018-07-16T23:59:01.442Z,9.90
